Stations météo

réclame
Mon MeteoGroup
Tarifa, Espagne (8458): Température de l'air & dewpoint: 13.07.2018 23:00:00 - 19.07.2018 23:00:00 (CEST)Tarifa, Espagne (8458): Vitesse du vent & gusts: 13.07.2018 23:00:00 - 19.07.2018 23:00:00 (CEST)Tarifa, Espagne (8458): Direction du vent: 13.07.2018 23:00:00 - 19.07.2018 23:00:00 (CEST)Tarifa, Espagne (8458): Quantités de précipitations: 13.07.2018 23:00:00 - 19.07.2018 23:00:00 (CEST)
Date & Time tt [°C] td [°C] ff [km/h] ff [knt] fx [km/h] fx [knt] dd rr [mm]
19.07.2018 23:00:00 - - - - - - - -
19.07.2018 22:00:00 20,5 15,7 10 5 19 11 WSW 0,0
19.07.2018 21:00:00 20,7 15,4 8 5 20 11 WNW 0,0
19.07.2018 20:00:00 22,0 15,6 9 5 25 13 W -
19.07.2018 19:00:00 22,2 16,5 14 7 28 15 W 0,0
19.07.2018 18:00:00 22,2 15,3 16 8 25 14 W 0,0
19.07.2018 17:00:00 22,9 14,2 14 7 29 16 WNW 0,0
19.07.2018 16:00:00 22,1 13,9 15 8 26 14 W 0,0
19.07.2018 15:00:00 22,4 15,3 16 9 34 18 W 0,0
19.07.2018 14:00:00 22,2 16,7 16 8 26 14 W -
19.07.2018 13:00:00 21,7 17,3 13 7 21 11 W 0,0
19.07.2018 12:00:00 22,0 17,0 10 6 19 10 W 0,0
19.07.2018 11:00:00 20,9 16,3 12 6 20 11 W 0,0
19.07.2018 10:00:00 20,7 16,6 10 5 15 8 W 0,0
19.07.2018 09:00:00 19,6 16,2 8 4 13 7 NW 0,0
19.07.2018 08:00:00 18,6 15,4 6 4 11 6 NW -
19.07.2018 07:00:00 18,3 15,2 3 1 14 7 NW 0,0
19.07.2018 06:00:00 18,6 15,3 8 5 13 7 N 0,0
19.07.2018 05:00:00 19,1 15,8 4 2 11 6 WSW 0,0
19.07.2018 04:00:00 18,4 15,1 3 1 15 8 WNW 0,0
19.07.2018 03:00:00 18,5 15,2 4 2 13 7 N 0,0
19.07.2018 02:00:00 19,5 16,1 6 3 11 6 SW -
19.07.2018 01:00:00 19,5 16,1 6 3 9 5 WNW 0,0
19.07.2018 00:00:00 20,0 16,6 3 2 9 5 SW 0,0
18.07.2018 23:00:00 20,2 16,8 4 2 10 6 SW 0,0
18.07.2018 22:00:00 20,2 16,5 5 3 11 6 S 0,0
18.07.2018 21:00:00 21,5 17,1 7 4 14 8 WSW 0,0
18.07.2018 20:00:00 22,2 17,1 9 5 18 10 WSW -
18.07.2018 19:00:00 22,5 17,0 14 8 23 12 W 0,0
18.07.2018 18:00:00 23,5 17,7 13 7 23 12 W 0,0
18.07.2018 17:00:00 24,1 16,6 13 7 22 12 W 0,0
18.07.2018 16:00:00 23,8 15,3 13 7 22 12 WNW 0,0
18.07.2018 15:00:00 23,6 16,1 16 8 23 13 W 0,0
18.07.2018 14:00:00 23,2 16,5 12 6 24 13 W -
18.07.2018 13:00:00 22,7 17,0 11 6 24 13 W 0,0
18.07.2018 12:00:00 22,6 16,6 14 8 26 14 W 0,0
18.07.2018 11:00:00 22,3 15,4 11 6 16 9 W 0,0
18.07.2018 10:00:00 22,3 14,7 9 5 14 8 W 0,0
18.07.2018 09:00:00 20,7 13,0 5 3 10 5 NNW 0,0
18.07.2018 08:00:00 18,5 11,6 5 3 8 4 N -
18.07.2018 07:00:00 19,5 11,8 1 0 21 12 N 0,0
18.07.2018 06:00:00 19,8 12,1 16 8 22 12 E 0,0
18.07.2018 05:00:00 19,6 12,6 14 8 27 14 E 0,0
18.07.2018 04:00:00 19,8 12,5 20 11 29 15 E 0,0
18.07.2018 03:00:00 20,7 8,0 19 11 38 21 E 0,0
18.07.2018 02:00:00 22,1 6,4 24 13 41 22 E -
18.07.2018 01:00:00 21,8 6,8 22 12 45 24 ENE 0,0
18.07.2018 00:00:00 21,3 7,1 27 15 46 25 E 0,0
17.07.2018 23:00:00 21,7 8,3 29 16 54 29 ENE 0,0
17.07.2018 22:00:00 21,5 8,4 35 19 54 29 ENE 0,0
17.07.2018 21:00:00 21,8 8,0 35 19 53 29 ENE 0,0
17.07.2018 20:00:00 23,6 7,7 34 18 55 30 E -
17.07.2018 19:00:00 24,0 9,2 34 19 53 29 E 0,0
17.07.2018 18:00:00 22,9 10,3 34 18 54 29 E 0,0
17.07.2018 17:00:00 23,9 8,3 36 19 56 30 E 0,0
17.07.2018 16:00:00 24,0 8,4 34 19 48 26 E 0,0
17.07.2018 15:00:00 23,8 8,7 28 15 42 23 E 0,0
17.07.2018 14:00:00 24,2 9,3 24 13 42 23 ENE -
17.07.2018 13:00:00 23,6 10,3 28 15 39 21 ENE 0,0
17.07.2018 12:00:00 24,7 9,0 25 13 39 21 E 0,0
17.07.2018 11:00:00 24,5 8,4 20 11 32 17 ENE 0,0
17.07.2018 10:00:00 23,8 10,4 13 7 21 12 E 0,0
17.07.2018 09:00:00 19,7 13,4 0 0 0 0 N 0,0
17.07.2018 08:00:00 18,8 13,3 0 0 12 7 N -
17.07.2018 07:00:00 18,4 14,7 5 3 12 7 NE 0,0
17.07.2018 06:00:00 17,2 13,9 6 4 9 5 E 0,0
17.07.2018 05:00:00 16,7 13,3 4 2 6 3 N 0,0
17.07.2018 04:00:00 17,7 13,9 0 0 9 5 SSW 0,0
17.07.2018 03:00:00 18,0 13,3 1 1 12 6 NNW 0,0
17.07.2018 02:00:00 19,6 14,8 10 5 16 9 NNW -
17.07.2018 01:00:00 18,0 14,5 2 1 8 4 WSW 0,0
17.07.2018 00:00:00 18,4 14,5 3 2 9 5 S 0,0
16.07.2018 23:00:00 19,6 15,4 5 3 20 11 W 0,0
16.07.2018 22:00:00 19,4 15,3 15 8 22 12 WNW 0,0
16.07.2018 21:00:00 20,1 14,7 11 6 26 14 WSW 0,0
16.07.2018 20:00:00 20,8 14,7 13 7 27 15 W -
16.07.2018 19:00:00 21,0 15,1 12 7 35 19 W 0,0
16.07.2018 18:00:00 20,7 14,8 19 11 31 17 W 0,0
16.07.2018 17:00:00 21,2 14,3 19 11 34 18 WSW 0,0
16.07.2018 16:00:00 21,6 14,2 19 11 32 18 WSW 0,0
16.07.2018 15:00:00 21,4 14,0 18 10 30 16 WSW 0,0
16.07.2018 14:00:00 21,8 13,7 16 9 27 15 WSW -
16.07.2018 13:00:00 22,0 14,1 16 9 41 22 WSW 0,0
16.07.2018 12:00:00 21,1 14,2 13 7 21 12 W 0,0
16.07.2018 11:00:00 20,3 13,5 10 5 22 12 WNW 0,0
16.07.2018 10:00:00 20,0 16,0 9 5 16 8 WSW 0,0
16.07.2018 09:00:00 19,1 15,8 7 4 16 9 W 0,0
16.07.2018 08:00:00 18,5 15,2 9 5 19 11 W -
16.07.2018 07:00:00 18,5 15,2 15 8 24 13 W 0,0
16.07.2018 06:00:00 18,7 15,3 14 8 24 13 WSW 0,0
16.07.2018 05:00:00 18,7 15,3 14 8 26 14 WSW 0,0
16.07.2018 04:00:00 18,6 15,3 15 8 22 12 W 0,0
16.07.2018 03:00:00 18,9 15,5 14 7 23 13 W 0,0
16.07.2018 02:00:00 18,9 15,5 16 9 24 13 W -
16.07.2018 01:00:00 19,0 15,7 13 7 24 13 W 0,0
16.07.2018 00:00:00 19,3 15,3 14 8 30 16 W 0,0
15.07.2018 23:00:00 19,6 15,3 20 11 29 16 W 0,0
15.07.2018 22:00:00 19,3 15,2 19 11 31 17 W 0,0
15.07.2018 21:00:00 19,9 14,5 19 11 34 19 WNW 0,0
15.07.2018 20:00:00 20,4 14,7 16 9 33 18 WNW -
15.07.2018 19:00:00 21,3 14,2 17 9 36 19 W 0,0
15.07.2018 18:00:00 20,6 14,0 24 13 35 19 W 0,0
15.07.2018 17:00:00 21,8 13,5 19 10 38 21 W 0,0
15.07.2018 16:00:00 20,9 13,4 26 14 39 21 W 0,0
15.07.2018 15:00:00 20,7 13,2 24 13 36 19 W 0,0
15.07.2018 14:00:00 20,7 12,6 23 12 36 19 W -
15.07.2018 13:00:00 20,9 13,4 19 10 37 20 W 0,0
15.07.2018 12:00:00 20,0 13,7 26 14 35 19 W 0,0
15.07.2018 11:00:00 19,9 13,9 22 12 36 19 W 0,0
15.07.2018 10:00:00 19,3 14,3 21 11 31 17 W 0,0
15.07.2018 09:00:00 18,4 14,7 14 8 25 14 W 0,0
15.07.2018 08:00:00 18,0 14,1 11 6 21 11 W -
15.07.2018 07:00:00 17,7 14,0 12 7 19 11 W 0,0
15.07.2018 06:00:00 17,5 13,9 14 7 26 14 W 0,0
15.07.2018 05:00:00 18,1 13,4 11 6 23 12 WNW 0,0
15.07.2018 04:00:00 17,8 13,8 13 7 24 13 WNW 0,0
15.07.2018 03:00:00 18,2 13,9 16 9 29 15 WNW 0,0
15.07.2018 02:00:00 18,8 13,3 15 8 29 16 WNW -
15.07.2018 01:00:00 18,7 13,9 16 8 24 13 WNW 0,0
15.07.2018 00:00:00 18,8 14,7 14 7 25 14 W 0,0
14.07.2018 23:00:00 19,0 14,9 19 11 29 16 WNW 0,0
14.07.2018 22:00:00 19,0 14,7 18 10 34 19 W 0,0
14.07.2018 21:00:00 19,8 14,1 23 13 37 20 W 0,0
14.07.2018 20:00:00 20,4 13,6 25 13 38 20 W -
14.07.2018 19:00:00 20,8 13,5 26 14 40 21 WSW 0,0
14.07.2018 18:00:00 21,7 13,6 23 12 36 19 WSW 0,0
14.07.2018 17:00:00 21,9 13,8 21 11 32 18 WSW 0,0
14.07.2018 16:00:00 22,4 13,2 16 9 35 19 W 0,0
14.07.2018 15:00:00 21,7 13,4 21 11 30 16 W 0,0
14.07.2018 14:00:00 22,1 13,5 17 9 29 16 W -
14.07.2018 13:00:00 21,1 14,0 19 10 30 16 WNW 0,0
14.07.2018 12:00:00 21,5 15,1 13 7 25 14 W 0,0
14.07.2018 11:00:00 20,4 15,0 14 7 19 10 W 0,0
14.07.2018 10:00:00 20,6 15,2 8 4 13 7 W 0,0
14.07.2018 09:00:00 19,5 15,3 5 3 9 5 WNW 0,0
14.07.2018 08:00:00 18,2 14,9 8 4 13 7 NW -
14.07.2018 07:00:00 18,0 14,5 8 5 14 8 NW 0,0
14.07.2018 06:00:00 18,1 14,2 8 4 16 8 NW 0,0
14.07.2018 05:00:00 18,3 13,9 10 6 14 8 NW 0,0
14.07.2018 04:00:00 18,7 14,4 10 6 17 9 NW 0,0
14.07.2018 03:00:00 18,5 14,4 8 5 16 9 NNW 0,0
14.07.2018 02:00:00 18,7 14,6 10 5 15 8 NW -
14.07.2018 01:00:00 18,8 14,5 8 4 14 8 NW 0,0
14.07.2018 00:00:00 19,8 15,3 10 5 14 8 W 0,0
13.07.2018 23:00:00 19,8 15,3 9 5 16 9 W 0,0

tt = Température de l'air
td = dewpoint
ff = Vitesse du vent
fx = gusts
dd = Direction du vent
rr = Quantités de précipitations

stations d'obs. à proximité